DAOY

El Bayadh Airport

El Bayadh, Algeria
METAR DAOY 180600Z 03010KT 8000 BKN010 05/03 Q1020
Observed Flight Rules
Feb-18 @ 06:00 UTC (an hour ago) Marginal Visual Flight Rules
Wind Visibility Clouds
30° at 10 knots 7,998 meters
  • Broken at 1,000' AGL
Temperatures Readings
Current 5°C / 41°F
Dewpoint 3°C / 37°F
Humidity 87%
Altimeter 30.12" Hg
Pressure 1020 hPa
Elevation 1347
METAR DAOY 180600Z 03010KT 8000 BKN010 05/03 Q1020
Observed Flight Rules
Feb-18 @ 06:00 UTC
(an hour ago)
MVFR
Wind Visibility
30° at 10 knots 7,998 meters
Clouds
  • Broken at 1,000' AGL
Temperature Dewpoint
5°C / 41°F 3°C / 37°F
Humidity Altimeter Pressure
87% 30.12" Hg 1020 hPa